sensor_id;sensor_type;location;lat;lon;timestamp;P1;durP1;ratioP1;P2;durP2;ratioP2
41755;SDS011;27435;48.480;9.258;2023-08-20T00:00:13;12.68;;;7.45;;
41755;SDS011;27435;48.480;9.258;2023-08-20T00:02:43;10.80;;;7.30;;
41755;SDS011;27435;48.480;9.258;2023-08-20T00:05:11;8.60;;;6.47;;
41755;SDS011;27435;48.480;9.258;2023-08-20T00:07:38;12.35;;;6.63;;
41755;SDS011;27435;48.480;9.258;2023-08-20T00:10:04;16.55;;;7.50;;
41755;SDS011;27435;48.480;9.258;2023-08-20T00:12:30;14.00;;;6.80;;
41755;SDS011;27435;48.480;9.258;2023-08-20T00:15:00;10.88;;;7.18;;
41755;SDS011;27435;48.480;9.258;2023-08-20T00:17:33;12.77;;;7.03;;
41755;SDS011;27435;48.480;9.258;2023-08-20T00:20:00;9.63;;;7.05;;
41755;SDS011;27435;48.480;9.258;2023-08-20T00:22:26;10.68;;;7.15;;
41755;SDS011;27435;48.480;9.258;2023-08-20T00:24:53;13.82;;;7.40;;
41755;SDS011;27435;48.480;9.258;2023-08-20T00:27:19;14.07;;;6.90;;
41755;SDS011;27435;48.480;9.258;2023-08-20T00:29:45;14.57;;;7.43;;
41755;SDS011;27435;48.480;9.258;2023-08-20T00:32:11;11.00;;;7.65;;
41755;SDS011;27435;48.480;9.258;2023-08-20T00:34:36;9.48;;;6.57;;
41755;SDS011;27435;48.480;9.258;2023-08-20T00:37:02;10.50;;;7.10;;
41755;SDS011;27435;48.480;9.258;2023-08-20T00:39:28;11.18;;;7.10;;
41755;SDS011;27435;48.480;9.258;2023-08-20T00:41:54;9.82;;;6.47;;
41755;SDS011;27435;48.480;9.258;2023-08-20T00:44:20;8.32;;;6.85;;
41755;SDS011;27435;48.480;9.258;2023-08-20T00:46:46;10.27;;;7.22;;
41755;SDS011;27435;48.480;9.258;2023-08-20T00:49:12;16.00;;;7.90;;
41755;SDS011;27435;48.480;9.258;2023-08-20T00:51:38;12.25;;;7.45;;
41755;SDS011;27435;48.480;9.258;2023-08-20T00:54:04;10.98;;;7.43;;
41755;SDS011;27435;48.480;9.258;2023-08-20T00:56:30;15.77;;;7.80;;
41755;SDS011;27435;48.480;9.258;2023-08-20T00:58:56;11.68;;;8.15;;
41755;SDS011;27435;48.480;9.258;2023-08-20T01:01:22;13.88;;;8.27;;
41755;SDS011;27435;48.480;9.258;2023-08-20T01:03:48;13.63;;;8.48;;
41755;SDS011;27435;48.480;9.258;2023-08-20T01:08:42;13.23;;;8.02;;
41755;SDS011;27435;48.480;9.258;2023-08-20T01:11:13;10.02;;;7.72;;
41755;SDS011;27435;48.480;9.258;2023-08-20T01:13:45;12.02;;;7.63;;
41755;SDS011;27435;48.480;9.258;2023-08-20T01:16:11;15.13;;;8.23;;
41755;SDS011;27435;48.480;9.258;2023-08-20T01:18:37;11.57;;;8.10;;
41755;SDS011;27435;48.480;9.258;2023-08-20T01:21:03;15.93;;;8.32;;
41755;SDS011;27435;48.480;9.258;2023-08-20T01:23:49;12.70;;;8.23;;
41755;SDS011;27435;48.480;9.258;2023-08-20T01:29:23;10.23;;;8.13;;
41755;SDS011;27435;48.480;9.258;2023-08-20T01:31:49;12.38;;;7.95;;
41755;SDS011;27435;48.480;9.258;2023-08-20T01:34:16;12.40;;;8.45;;
41755;SDS011;27435;48.480;9.258;2023-08-20T01:36:41;12.25;;;8.32;;
41755;SDS011;27435;48.480;9.258;2023-08-20T01:39:07;10.18;;;7.10;;
41755;SDS011;27435;48.480;9.258;2023-08-20T01:41:33;12.70;;;8.02;;
41755;SDS011;27435;48.480;9.258;2023-08-20T01:43:58;13.27;;;7.82;;
41755;SDS011;27435;48.480;9.258;2023-08-20T01:46:24;12.82;;;8.95;;
41755;SDS011;27435;48.480;9.258;2023-08-20T01:48:49;11.13;;;8.00;;
41755;SDS011;27435;48.480;9.258;2023-08-20T01:51:15;11.63;;;7.60;;
41755;SDS011;27435;48.480;9.258;2023-08-20T01:53:41;11.63;;;7.90;;
41755;SDS011;27435;48.480;9.258;2023-08-20T01:56:13;12.68;;;8.07;;
41755;SDS011;27435;48.480;9.258;2023-08-20T01:58:38;10.75;;;8.60;;
41755;SDS011;27435;48.480;9.258;2023-08-20T02:01:05;11.15;;;8.07;;
41755;SDS011;27435;48.480;9.258;2023-08-20T02:03:31;13.27;;;7.72;;
41755;SDS011;27435;48.480;9.258;2023-08-20T02:05:56;11.05;;;7.90;;
41755;SDS011;27435;48.480;9.258;2023-08-20T02:08:22;11.63;;;8.27;;
41755;SDS011;27435;48.480;9.258;2023-08-20T02:10:48;17.65;;;9.85;;
41755;SDS011;27435;48.480;9.258;2023-08-20T02:13:13;12.15;;;9.15;;
41755;SDS011;27435;48.480;9.258;2023-08-20T02:15:39;15.75;;;9.38;;
41755;SDS011;27435;48.480;9.258;2023-08-20T02:18:04;14.23;;;8.32;;
41755;SDS011;27435;48.480;9.258;2023-08-20T02:20:30;15.90;;;8.82;;
41755;SDS011;27435;48.480;9.258;2023-08-20T02:22:56;13.85;;;8.18;;
41755;SDS011;27435;48.480;9.258;2023-08-20T02:25:22;12.70;;;8.18;;
41755;SDS011;27435;48.480;9.258;2023-08-20T02:27:48;13.30;;;8.82;;
41755;SDS011;27435;48.480;9.258;2023-08-20T02:30:14;13.48;;;9.20;;
41755;SDS011;27435;48.480;9.258;2023-08-20T02:32:40;13.15;;;10.55;;
41755;SDS011;27435;48.480;9.258;2023-08-20T02:35:05;12.82;;;8.70;;
41755;SDS011;27435;48.480;9.258;2023-08-20T02:37:32;14.00;;;9.75;;
41755;SDS011;27435;48.480;9.258;2023-08-20T02:39:57;13.68;;;9.75;;
41755;SDS011;27435;48.480;9.258;2023-08-20T02:42:23;15.00;;;10.10;;
41755;SDS011;27435;48.480;9.258;2023-08-20T02:44:49;13.60;;;9.52;;
41755;SDS011;27435;48.480;9.258;2023-08-20T02:47:14;16.27;;;10.23;;
41755;SDS011;27435;48.480;9.258;2023-08-20T02:49:40;16.23;;;10.38;;
41755;SDS011;27435;48.480;9.258;2023-08-20T02:52:05;15.65;;;10.00;;
41755;SDS011;27435;48.480;9.258;2023-08-20T02:54:31;12.70;;;9.85;;
41755;SDS011;27435;48.480;9.258;2023-08-20T02:56:57;11.65;;;9.65;;
41755;SDS011;27435;48.480;9.258;2023-08-20T02:59:23;15.32;;;10.13;;
41755;SDS011;27435;48.480;9.258;2023-08-20T03:01:49;15.40;;;10.82;;
41755;SDS011;27435;48.480;9.258;2023-08-20T03:04:15;15.10;;;10.35;;
41755;SDS011;27435;48.480;9.258;2023-08-20T03:06:41;16.52;;;11.50;;
41755;SDS011;27435;48.480;9.258;2023-08-20T03:09:07;17.60;;;11.27;;
41755;SDS011;27435;48.480;9.258;2023-08-20T03:11:32;17.08;;;10.40;;
41755;SDS011;27435;48.480;9.258;2023-08-20T03:13:58;14.00;;;9.75;;
41755;SDS011;27435;48.480;9.258;2023-08-20T03:16:24;17.10;;;10.10;;
41755;SDS011;27435;48.480;9.258;2023-08-20T03:18:49;17.25;;;10.55;;
41755;SDS011;27435;48.480;9.258;2023-08-20T03:21:15;13.40;;;9.70;;
41755;SDS011;27435;48.480;9.258;2023-08-20T03:23:40;14.68;;;10.00;;
41755;SDS011;27435;48.480;9.258;2023-08-20T03:26:06;12.85;;;9.38;;
41755;SDS011;27435;48.480;9.258;2023-08-20T03:28:31;13.90;;;9.55;;
41755;SDS011;27435;48.480;9.258;2023-08-20T03:31:00;12.45;;;9.70;;
41755;SDS011;27435;48.480;9.258;2023-08-20T03:33:26;13.98;;;9.45;;
41755;SDS011;27435;48.480;9.258;2023-08-20T03:35:52;13.52;;;10.70;;
41755;SDS011;27435;48.480;9.258;2023-08-20T03:38:17;14.18;;;9.98;;
41755;SDS011;27435;48.480;9.258;2023-08-20T03:40:43;18.02;;;10.43;;
41755;SDS011;27435;48.480;9.258;2023-08-20T03:43:10;18.75;;;10.65;;
41755;SDS011;27435;48.480;9.258;2023-08-20T03:45:35;15.30;;;10.32;;
41755;SDS011;27435;48.480;9.258;2023-08-20T03:48:01;14.60;;;10.57;;
41755;SDS011;27435;48.480;9.258;2023-08-20T03:50:27;12.73;;;9.75;;
41755;SDS011;27435;48.480;9.258;2023-08-20T03:52:52;17.98;;;11.05;;
41755;SDS011;27435;48.480;9.258;2023-08-20T03:55:18;13.27;;;10.27;;
41755;SDS011;27435;48.480;9.258;2023-08-20T03:57:44;17.85;;;11.35;;
41755;SDS011;27435;48.480;9.258;2023-08-20T04:00:10;12.25;;;10.05;;
41755;SDS011;27435;48.480;9.258;2023-08-20T04:02:37;13.40;;;10.85;;
41755;SDS011;27435;48.480;9.258;2023-08-20T04:05:03;16.58;;;11.27;;
41755;SDS011;27435;48.480;9.258;2023-08-20T04:07:29;16.05;;;9.73;;
41755;SDS011;27435;48.480;9.258;2023-08-20T04:09:55;12.75;;;10.40;;
41755;SDS011;27435;48.480;9.258;2023-08-20T04:12:21;14.60;;;10.05;;
41755;SDS011;27435;48.480;9.258;2023-08-20T04:14:46;15.85;;;10.70;;
41755;SDS011;27435;48.480;9.258;2023-08-20T04:17:12;16.75;;;10.75;;
41755;SDS011;27435;48.480;9.258;2023-08-20T04:19:37;13.90;;;10.15;;
41755;SDS011;27435;48.480;9.258;2023-08-20T04:22:03;15.23;;;11.75;;
41755;SDS011;27435;48.480;9.258;2023-08-20T04:24:28;18.52;;;11.93;;
41755;SDS011;27435;48.480;9.258;2023-08-20T04:26:54;18.00;;;11.80;;
41755;SDS011;27435;48.480;9.258;2023-08-20T04:29:20;17.70;;;11.80;;
41755;SDS011;27435;48.480;9.258;2023-08-20T04:31:45;16.13;;;11.18;;
41755;SDS011;27435;48.480;9.258;2023-08-20T04:34:11;17.63;;;11.75;;
41755;SDS011;27435;48.480;9.258;2023-08-20T04:36:36;20.55;;;11.27;;
41755;SDS011;27435;48.480;9.258;2023-08-20T04:39:02;17.20;;;11.18;;
41755;SDS011;27435;48.480;9.258;2023-08-20T04:41:29;17.63;;;10.40;;
41755;SDS011;27435;48.480;9.258;2023-08-20T04:43:55;18.38;;;11.35;;
41755;SDS011;27435;48.480;9.258;2023-08-20T04:46:20;16.40;;;11.65;;
41755;SDS011;27435;48.480;9.258;2023-08-20T04:48:46;17.05;;;10.65;;
41755;SDS011;27435;48.480;9.258;2023-08-20T04:51:11;15.10;;;10.93;;
41755;SDS011;27435;48.480;9.258;2023-08-20T04:53:37;17.08;;;11.02;;
41755;SDS011;27435;48.480;9.258;2023-08-20T04:56:03;14.57;;;10.55;;
41755;SDS011;27435;48.480;9.258;2023-08-20T04:58:28;15.63;;;10.77;;
41755;SDS011;27435;48.480;9.258;2023-08-20T05:00:54;15.95;;;11.27;;
41755;SDS011;27435;48.480;9.258;2023-08-20T05:03:19;14.95;;;11.48;;
41755;SDS011;27435;48.480;9.258;2023-08-20T05:05:49;17.05;;;11.00;;
41755;SDS011;27435;48.480;9.258;2023-08-20T05:08:15;13.88;;;10.50;;
41755;SDS011;27435;48.480;9.258;2023-08-20T05:10:41;16.15;;;11.65;;
41755;SDS011;27435;48.480;9.258;2023-08-20T05:13:06;16.95;;;12.50;;
41755;SDS011;27435;48.480;9.258;2023-08-20T05:15:33;15.02;;;11.27;;
41755;SDS011;27435;48.480;9.258;2023-08-20T05:17:58;14.60;;;11.10;;
41755;SDS011;27435;48.480;9.258;2023-08-20T05:20:25;16.25;;;10.85;;
41755;SDS011;27435;48.480;9.258;2023-08-20T05:22:50;18.60;;;10.93;;
41755;SDS011;27435;48.480;9.258;2023-08-20T05:25:16;13.13;;;10.55;;
41755;SDS011;27435;48.480;9.258;2023-08-20T05:27:42;14.73;;;10.43;;
41755;SDS011;27435;48.480;9.258;2023-08-20T05:30:07;12.82;;;10.32;;
41755;SDS011;27435;48.480;9.258;2023-08-20T05:32:33;13.48;;;9.85;;
41755;SDS011;27435;48.480;9.258;2023-08-20T05:34:59;13.77;;;9.90;;
41755;SDS011;27435;48.480;9.258;2023-08-20T05:37:24;15.80;;;10.57;;
41755;SDS011;27435;48.480;9.258;2023-08-20T05:39:50;16.67;;;10.75;;
41755;SDS011;27435;48.480;9.258;2023-08-20T05:42:16;15.88;;;11.55;;
41755;SDS011;27435;48.480;9.258;2023-08-20T05:44:41;14.88;;;10.40;;
41755;SDS011;27435;48.480;9.258;2023-08-20T05:47:07;17.50;;;10.73;;
41755;SDS011;27435;48.480;9.258;2023-08-20T05:49:33;14.00;;;10.18;;
41755;SDS011;27435;48.480;9.258;2023-08-20T05:51:58;14.85;;;10.60;;
41755;SDS011;27435;48.480;9.258;2023-08-20T05:54:24;13.10;;;9.93;;
41755;SDS011;27435;48.480;9.258;2023-08-20T05:56:50;13.20;;;9.77;;
41755;SDS011;27435;48.480;9.258;2023-08-20T05:59:15;14.18;;;9.70;;
41755;SDS011;27435;48.480;9.258;2023-08-20T06:01:41;12.65;;;9.57;;
41755;SDS011;27435;48.480;9.258;2023-08-20T06:04:07;12.65;;;8.68;;
41755;SDS011;27435;48.480;9.258;2023-08-20T06:06:34;12.07;;;9.10;;
41755;SDS011;27435;48.480;9.258;2023-08-20T06:09:00;12.40;;;9.00;;
41755;SDS011;27435;48.480;9.258;2023-08-20T06:11:25;14.25;;;8.88;;
41755;SDS011;27435;48.480;9.258;2023-08-20T06:13:51;12.93;;;8.80;;
41755;SDS011;27435;48.480;9.258;2023-08-20T06:16:17;16.17;;;7.90;;
41755;SDS011;27435;48.480;9.258;2023-08-20T06:18:42;14.45;;;8.55;;
41755;SDS011;27435;48.480;9.258;2023-08-20T06:21:08;15.07;;;8.55;;
41755;SDS011;27435;48.480;9.258;2023-08-20T06:23:33;15.35;;;8.60;;
41755;SDS011;27435;48.480;9.258;2023-08-20T06:25:59;13.55;;;8.65;;
41755;SDS011;27435;48.480;9.258;2023-08-20T06:28:25;12.65;;;8.20;;
41755;SDS011;27435;48.480;9.258;2023-08-20T06:30:50;11.23;;;8.40;;
41755;SDS011;27435;48.480;9.258;2023-08-20T06:33:16;14.70;;;8.43;;
41755;SDS011;27435;48.480;9.258;2023-08-20T06:35:41;12.45;;;8.13;;
41755;SDS011;27435;48.480;9.258;2023-08-20T06:38:07;10.65;;;7.63;;
41755;SDS011;27435;48.480;9.258;2023-08-20T06:40:33;11.60;;;7.95;;
41755;SDS011;27435;48.480;9.258;2023-08-20T06:42:58;14.18;;;7.95;;
41755;SDS011;27435;48.480;9.258;2023-08-20T06:45:24;12.52;;;7.22;;
41755;SDS011;27435;48.480;9.258;2023-08-20T06:47:50;10.57;;;6.70;;
41755;SDS011;27435;48.480;9.258;2023-08-20T06:50:15;11.25;;;6.60;;
41755;SDS011;27435;48.480;9.258;2023-08-20T06:52:42;8.52;;;6.35;;
41755;SDS011;27435;48.480;9.258;2023-08-20T06:55:07;11.85;;;6.75;;
41755;SDS011;27435;48.480;9.258;2023-08-20T06:57:33;16.30;;;7.40;;
41755;SDS011;27435;48.480;9.258;2023-08-20T06:59:59;14.93;;;7.38;;
41755;SDS011;27435;48.480;9.258;2023-08-20T07:02:24;9.35;;;7.72;;
41755;SDS011;27435;48.480;9.258;2023-08-20T07:04:50;10.85;;;8.10;;
41755;SDS011;27435;48.480;9.258;2023-08-20T07:07:15;14.98;;;7.57;;
41755;SDS011;27435;48.480;9.258;2023-08-20T07:09:41;11.27;;;8.25;;
41755;SDS011;27435;48.480;9.258;2023-08-20T07:12:07;8.43;;;6.85;;
41755;SDS011;27435;48.480;9.258;2023-08-20T07:14:32;11.45;;;7.20;;
41755;SDS011;27435;48.480;9.258;2023-08-20T07:16:58;12.07;;;7.57;;
41755;SDS011;27435;48.480;9.258;2023-08-20T07:19:25;16.23;;;8.10;;
41755;SDS011;27435;48.480;9.258;2023-08-20T07:21:51;9.77;;;7.25;;
41755;SDS011;27435;48.480;9.258;2023-08-20T07:24:16;10.85;;;7.15;;
41755;SDS011;27435;48.480;9.258;2023-08-20T07:26:43;13.00;;;7.60;;
41755;SDS011;27435;48.480;9.258;2023-08-20T07:29:09;13.80;;;6.82;;
41755;SDS011;27435;48.480;9.258;2023-08-20T07:31:34;11.77;;;7.05;;
41755;SDS011;27435;48.480;9.258;2023-08-20T07:34:01;9.25;;;6.50;;
41755;SDS011;27435;48.480;9.258;2023-08-20T07:36:28;14.57;;;6.95;;
41755;SDS011;27435;48.480;9.258;2023-08-20T07:38:53;12.52;;;7.25;;
41755;SDS011;27435;48.480;9.258;2023-08-20T07:41:20;11.63;;;7.22;;
41755;SDS011;27435;48.480;9.258;2023-08-20T07:43:46;13.48;;;7.05;;
41755;SDS011;27435;48.480;9.258;2023-08-20T07:46:13;9.50;;;6.78;;
41755;SDS011;27435;48.480;9.258;2023-08-20T07:48:39;13.38;;;7.25;;
41755;SDS011;27435;48.480;9.258;2023-08-20T07:51:05;11.15;;;7.30;;
41755;SDS011;27435;48.480;9.258;2023-08-20T07:53:32;11.80;;;7.38;;
41755;SDS011;27435;48.480;9.258;2023-08-20T07:55:58;12.77;;;7.25;;
41755;SDS011;27435;48.480;9.258;2023-08-20T07:58:27;10.23;;;7.30;;
41755;SDS011;27435;48.480;9.258;2023-08-20T08:00:53;11.15;;;7.25;;
41755;SDS011;27435;48.480;9.258;2023-08-20T08:03:21;14.93;;;6.88;;
41755;SDS011;27435;48.480;9.258;2023-08-20T08:05:47;13.13;;;7.40;;
41755;SDS011;27435;48.480;9.258;2023-08-20T08:08:14;12.07;;;7.07;;
41755;SDS011;27435;48.480;9.258;2023-08-20T08:10:41;14.15;;;7.05;;
41755;SDS011;27435;48.480;9.258;2023-08-20T08:13:09;10.88;;;7.20;;
41755;SDS011;27435;48.480;9.258;2023-08-20T08:15:35;13.20;;;7.18;;
41755;SDS011;27435;48.480;9.258;2023-08-20T08:18:01;13.75;;;6.00;;
41755;SDS011;27435;48.480;9.258;2023-08-20T08:20:27;14.25;;;7.47;;
41755;SDS011;27435;48.480;9.258;2023-08-20T08:22:52;11.02;;;6.93;;
41755;SDS011;27435;48.480;9.258;2023-08-20T08:25:18;16.38;;;7.72;;
41755;SDS011;27435;48.480;9.258;2023-08-20T08:27:44;13.35;;;6.95;;
41755;SDS011;27435;48.480;9.258;2023-08-20T08:30:10;12.13;;;6.90;;
41755;SDS011;27435;48.480;9.258;2023-08-20T08:32:36;10.13;;;7.53;;
41755;SDS011;27435;48.480;9.258;2023-08-20T08:35:02;11.75;;;6.60;;
41755;SDS011;27435;48.480;9.258;2023-08-20T08:37:28;9.35;;;5.75;;
41755;SDS011;27435;48.480;9.258;2023-08-20T08:39:53;12.15;;;6.57;;
41755;SDS011;27435;48.480;9.258;2023-08-20T08:42:19;10.40;;;5.97;;
41755;SDS011;27435;48.480;9.258;2023-08-20T08:44:48;10.80;;;6.82;;
41755;SDS011;27435;48.480;9.258;2023-08-20T08:47:15;10.60;;;6.75;;
41755;SDS011;27435;48.480;9.258;2023-08-20T08:49:41;8.25;;;6.00;;
41755;SDS011;27435;48.480;9.258;2023-08-20T08:52:08;11.30;;;6.75;;
41755;SDS011;27435;48.480;9.258;2023-08-20T08:54:36;9.52;;;6.10;;
41755;SDS011;27435;48.480;9.258;2023-08-20T08:57:02;13.60;;;6.05;;
41755;SDS011;27435;48.480;9.258;2023-08-20T08:59:27;10.40;;;5.45;;
41755;SDS011;27435;48.480;9.258;2023-08-20T09:01:53;10.18;;;6.25;;
41755;SDS011;27435;48.480;9.258;2023-08-20T09:04:21;9.63;;;6.53;;
41755;SDS011;27435;48.480;9.258;2023-08-20T09:06:51;12.50;;;5.95;;
41755;SDS011;27435;48.480;9.258;2023-08-20T09:09:18;10.40;;;6.68;;
41755;SDS011;27435;48.480;9.258;2023-08-20T09:11:46;8.27;;;6.15;;
41755;SDS011;27435;48.480;9.258;2023-08-20T09:14:22;9.23;;;6.05;;
41755;SDS011;27435;48.480;9.258;2023-08-20T09:16:57;11.48;;;6.20;;
41755;SDS011;27435;48.480;9.258;2023-08-20T09:19:25;9.13;;;6.20;;
41755;SDS011;27435;48.480;9.258;2023-08-20T09:21:55;10.68;;;5.97;;
41755;SDS011;27435;48.480;9.258;2023-08-20T09:24:54;12.73;;;5.93;;
41755;SDS011;27435;48.480;9.258;2023-08-20T09:27:17;9.90;;;5.95;;
41755;SDS011;27435;48.480;9.258;2023-08-20T09:32:16;10.45;;;6.47;;
41755;SDS011;27435;48.480;9.258;2023-08-20T09:34:43;8.32;;;5.72;;
41755;SDS011;27435;48.480;9.258;2023-08-20T09:37:12;9.68;;;5.95;;
41755;SDS011;27435;48.480;9.258;2023-08-20T09:39:38;11.00;;;6.55;;
41755;SDS011;27435;48.480;9.258;2023-08-20T09:42:05;8.18;;;5.85;;
41755;SDS011;27435;48.480;9.258;2023-08-20T09:44:35;9.15;;;6.22;;
41755;SDS011;27435;48.480;9.258;2023-08-20T09:47:02;11.32;;;6.32;;
41755;SDS011;27435;48.480;9.258;2023-08-20T09:49:31;13.82;;;7.03;;
41755;SDS011;27435;48.480;9.258;2023-08-20T09:52:03;9.27;;;5.60;;
41755;SDS011;27435;48.480;9.258;2023-08-20T09:54:45;8.38;;;6.45;;
41755;SDS011;27435;48.480;9.258;2023-08-20T09:57:33;11.23;;;5.40;;
41755;SDS011;27435;48.480;9.258;2023-08-20T10:00:03;12.18;;;6.47;;
41755;SDS011;27435;48.480;9.258;2023-08-20T10:02:36;11.32;;;6.25;;
41755;SDS011;27435;48.480;9.258;2023-08-20T10:05:02;11.48;;;5.32;;
41755;SDS011;27435;48.480;9.258;2023-08-20T10:07:30;8.40;;;5.60;;
41755;SDS011;27435;48.480;9.258;2023-08-20T10:09:57;11.20;;;5.80;;
41755;SDS011;27435;48.480;9.258;2023-08-20T10:12:26;10.70;;;5.38;;
41755;SDS011;27435;48.480;9.258;2023-08-20T10:14:53;12.10;;;5.75;;
41755;SDS011;27435;48.480;9.258;2023-08-20T10:17:19;9.90;;;5.25;;
41755;SDS011;27435;48.480;9.258;2023-08-20T10:19:46;9.68;;;4.93;;
41755;SDS011;27435;48.480;9.258;2023-08-20T10:22:12;6.97;;;5.18;;
41755;SDS011;27435;48.480;9.258;2023-08-20T10:24:44;8.13;;;5.10;;
41755;SDS011;27435;48.480;9.258;2023-08-20T10:27:23;12.02;;;5.15;;
41755;SDS011;27435;48.480;9.258;2023-08-20T10:29:50;19.80;;;7.70;;
41755;SDS011;27435;48.480;9.258;2023-08-20T10:32:43;9.52;;;5.75;;
41755;SDS011;27435;48.480;9.258;2023-08-20T10:35:16;9.70;;;4.70;;
41755;SDS011;27435;48.480;9.258;2023-08-20T10:40:51;10.82;;;5.25;;
41755;SDS011;27435;48.480;9.258;2023-08-20T10:43:29;10.15;;;5.35;;
41755;SDS011;27435;48.480;9.258;2023-08-20T10:46:06;16.60;;;5.60;;
41755;SDS011;27435;48.480;9.258;2023-08-20T10:48:38;8.05;;;5.05;;
41755;SDS011;27435;48.480;9.258;2023-08-20T10:51:17;10.65;;;5.95;;
41755;SDS011;27435;48.480;9.258;2023-08-20T10:54:10;9.07;;;5.38;;
41755;SDS011;27435;48.480;9.258;2023-08-20T10:56:45;7.57;;;4.53;;
41755;SDS011;27435;48.480;9.258;2023-08-20T11:01:52;12.43;;;4.95;;
41755;SDS011;27435;48.480;9.258;2023-08-20T11:04:21;14.98;;;4.57;;
41755;SDS011;27435;48.480;9.258;2023-08-20T11:06:55;7.40;;;4.22;;
41755;SDS011;27435;48.480;9.258;2023-08-20T11:09:22;8.98;;;5.15;;
41755;SDS011;27435;48.480;9.258;2023-08-20T11:11:49;9.38;;;4.60;;
41755;SDS011;27435;48.480;9.258;2023-08-20T11:14:17;10.98;;;4.90;;
41755;SDS011;27435;48.480;9.258;2023-08-20T11:16:44;13.02;;;5.32;;
41755;SDS011;27435;48.480;9.258;2023-08-20T11:19:11;14.05;;;4.57;;
41755;SDS011;27435;48.480;9.258;2023-08-20T11:21:37;13.65;;;4.70;;
41755;SDS011;27435;48.480;9.258;2023-08-20T11:24:04;9.65;;;4.75;;
41755;SDS011;27435;48.480;9.258;2023-08-20T11:26:31;9.20;;;4.20;;
41755;SDS011;27435;48.480;9.258;2023-08-20T11:28:57;7.72;;;4.20;;
41755;SDS011;27435;48.480;9.258;2023-08-20T11:31:23;11.50;;;4.18;;
41755;SDS011;27435;48.480;9.258;2023-08-20T11:33:50;14.50;;;4.53;;
41755;SDS011;27435;48.480;9.258;2023-08-20T11:36:15;8.25;;;4.22;;
41755;SDS011;27435;48.480;9.258;2023-08-20T11:38:42;9.65;;;4.45;;
41755;SDS011;27435;48.480;9.258;2023-08-20T11:41:14;9.18;;;4.13;;
41755;SDS011;27435;48.480;9.258;2023-08-20T11:43:40;12.30;;;4.45;;
41755;SDS011;27435;48.480;9.258;2023-08-20T11:46:12;9.75;;;4.45;;
41755;SDS011;27435;48.480;9.258;2023-08-20T11:53:59;7.95;;;4.25;;
41755;SDS011;27435;48.480;9.258;2023-08-20T11:56:26;7.45;;;4.18;;
41755;SDS011;27435;48.480;9.258;2023-08-20T11:58:52;10.27;;;4.70;;
41755;SDS011;27435;48.480;9.258;2023-08-20T12:01:23;7.30;;;4.32;;
41755;SDS011;27435;48.480;9.258;2023-08-20T12:03:49;17.05;;;4.28;;
41755;SDS011;27435;48.480;9.258;2023-08-20T12:06:18;7.25;;;4.35;;
41755;SDS011;27435;48.480;9.258;2023-08-20T12:08:44;10.38;;;4.07;;
41755;SDS011;27435;48.480;9.258;2023-08-20T12:11:10;9.00;;;4.30;;
41755;SDS011;27435;48.480;9.258;2023-08-20T12:13:35;6.28;;;4.03;;
41755;SDS011;27435;48.480;9.258;2023-08-20T12:16:01;6.78;;;4.07;;
41755;SDS011;27435;48.480;9.258;2023-08-20T12:18:27;14.15;;;4.32;;
41755;SDS011;27435;48.480;9.258;2023-08-20T12:20:53;6.07;;;4.05;;
41755;SDS011;27435;48.480;9.258;2023-08-20T12:23:19;7.95;;;4.50;;
41755;SDS011;27435;48.480;9.258;2023-08-20T12:25:49;7.60;;;4.22;;
41755;SDS011;27435;48.480;9.258;2023-08-20T12:28:15;10.02;;;4.38;;
41755;SDS011;27435;48.480;9.258;2023-08-20T12:30:41;8.60;;;4.18;;
41755;SDS011;27435;48.480;9.258;2023-08-20T12:33:07;8.27;;;3.90;;
41755;SDS011;27435;48.480;9.258;2023-08-20T12:35:32;10.38;;;3.90;;
41755;SDS011;27435;48.480;9.258;2023-08-20T12:37:58;13.48;;;4.68;;
41755;SDS011;27435;48.480;9.258;2023-08-20T12:40:24;6.10;;;3.45;;
41755;SDS011;27435;48.480;9.258;2023-08-20T12:42:49;7.32;;;3.90;;
41755;SDS011;27435;48.480;9.258;2023-08-20T12:45:15;9.73;;;3.88;;
41755;SDS011;27435;48.480;9.258;2023-08-20T12:47:40;7.47;;;4.22;;
41755;SDS011;27435;48.480;9.258;2023-08-20T12:50:06;7.65;;;3.90;;
41755;SDS011;27435;48.480;9.258;2023-08-20T12:52:32;10.52;;;3.92;;
41755;SDS011;27435;48.480;9.258;2023-08-20T12:54:58;7.35;;;4.13;;
41755;SDS011;27435;48.480;9.258;2023-08-20T12:57:24;10.77;;;4.18;;
41755;SDS011;27435;48.480;9.258;2023-08-20T12:59:49;9.20;;;4.20;;
41755;SDS011;27435;48.480;9.258;2023-08-20T13:02:15;9.57;;;3.90;;
41755;SDS011;27435;48.480;9.258;2023-08-20T13:04:41;9.10;;;4.15;;
41755;SDS011;27435;48.480;9.258;2023-08-20T13:07:07;8.20;;;4.28;;
41755;SDS011;27435;48.480;9.258;2023-08-20T13:09:33;5.50;;;3.97;;
41755;SDS011;27435;48.480;9.258;2023-08-20T13:12:00;12.07;;;4.22;;
41755;SDS011;27435;48.480;9.258;2023-08-20T13:14:28;8.00;;;3.90;;
41755;SDS011;27435;48.480;9.258;2023-08-20T13:16:54;11.20;;;3.85;;
41755;SDS011;27435;48.480;9.258;2023-08-20T13:19:21;8.55;;;4.35;;
41755;SDS011;27435;48.480;9.258;2023-08-20T13:21:47;9.75;;;4.18;;
41755;SDS011;27435;48.480;9.258;2023-08-20T13:24:12;12.77;;;4.10;;
41755;SDS011;27435;48.480;9.258;2023-08-20T13:26:39;7.68;;;4.10;;
41755;SDS011;27435;48.480;9.258;2023-08-20T13:29:04;7.25;;;4.00;;
41755;SDS011;27435;48.480;9.258;2023-08-20T13:31:30;9.70;;;4.28;;
41755;SDS011;27435;48.480;9.258;2023-08-20T13:33:55;7.60;;;3.80;;
41755;SDS011;27435;48.480;9.258;2023-08-20T13:36:21;7.72;;;3.88;;
41755;SDS011;27435;48.480;9.258;2023-08-20T13:38:47;12.25;;;4.10;;
41755;SDS011;27435;48.480;9.258;2023-08-20T13:41:12;9.38;;;3.90;;
41755;SDS011;27435;48.480;9.258;2023-08-20T13:43:38;7.65;;;4.13;;
41755;SDS011;27435;48.480;9.258;2023-08-20T13:46:03;7.90;;;3.65;;
41755;SDS011;27435;48.480;9.258;2023-08-20T13:48:29;6.97;;;3.88;;
41755;SDS011;27435;48.480;9.258;2023-08-20T13:50:55;9.32;;;4.20;;
41755;SDS011;27435;48.480;9.258;2023-08-20T13:53:20;14.10;;;4.45;;
41755;SDS011;27435;48.480;9.258;2023-08-20T13:55:46;8.77;;;3.65;;
41755;SDS011;27435;48.480;9.258;2023-08-20T13:58:11;8.07;;;3.88;;
41755;SDS011;27435;48.480;9.258;2023-08-20T14:00:37;8.07;;;3.78;;
41755;SDS011;27435;48.480;9.258;2023-08-20T14:03:03;5.63;;;3.90;;
41755;SDS011;27435;48.480;9.258;2023-08-20T14:05:29;7.75;;;4.25;;
41755;SDS011;27435;48.480;9.258;2023-08-20T14:07:55;8.23;;;4.00;;
41755;SDS011;27435;48.480;9.258;2023-08-20T14:10:21;9.32;;;3.83;;
41755;SDS011;27435;48.480;9.258;2023-08-20T14:12:47;7.05;;;3.25;;
41755;SDS011;27435;48.480;9.258;2023-08-20T14:15:13;12.27;;;4.03;;
41755;SDS011;27435;48.480;9.258;2023-08-20T14:17:38;9.45;;;3.88;;
41755;SDS011;27435;48.480;9.258;2023-08-20T14:20:05;7.50;;;4.32;;
41755;SDS011;27435;48.480;9.258;2023-08-20T14:22:31;10.52;;;4.50;;
41755;SDS011;27435;48.480;9.258;2023-08-20T14:24:57;6.93;;;3.60;;
41755;SDS011;27435;48.480;9.258;2023-08-20T14:27:23;8.90;;;3.75;;
41755;SDS011;27435;48.480;9.258;2023-08-20T14:29:48;8.60;;;4.00;;
41755;SDS011;27435;48.480;9.258;2023-08-20T14:32:14;6.68;;;3.85;;
41755;SDS011;27435;48.480;9.258;2023-08-20T14:34:39;16.25;;;3.97;;
41755;SDS011;27435;48.480;9.258;2023-08-20T14:37:05;9.90;;;3.60;;
41755;SDS011;27435;48.480;9.258;2023-08-20T14:39:31;9.95;;;4.03;;
41755;SDS011;27435;48.480;9.258;2023-08-20T14:41:57;7.80;;;4.05;;
41755;SDS011;27435;48.480;9.258;2023-08-20T14:44:23;8.13;;;3.75;;
41755;SDS011;27435;48.480;9.258;2023-08-20T14:46:48;8.93;;;3.88;;
41755;SDS011;27435;48.480;9.258;2023-08-20T14:49:15;10.93;;;3.83;;
41755;SDS011;27435;48.480;9.258;2023-08-20T14:51:41;7.88;;;3.80;;